Time;durP1;ratioP1;P1;durP2;ratioP2;P2;SDS_P1;SDS_P2;PMS_P1;PMS_P2;Temp;Humidity;BMP_temperature;BMP_pressure;BME280_temperature;BME280_humidity;BME280_pressure;Samples;Min_cycle;Max_cycle;Signal;HPM_P1;HPM_P2
2022/05/08 00:02:20;;;;;;;5.13;2.20;;;3.30;1.00;;;;;;5015383;28;20124;-26
2022/05/08 00:04:50;;;;;;;8.73;2.67;;;3.00;1.00;;;;;;5016661;28;20089;-26
2022/05/08 00:07:17;;;;;;;11.03;3.07;;;2.90;1.00;;;;;;5016777;28;20119;-27
2022/05/08 00:09:43;;;;;;;12.47;4.20;;;2.90;1.00;;;;;;5037092;28;20156;-26
2022/05/08 00:12:13;;;;;;;15.93;3.67;;;2.80;1.00;;;;;;5024059;28;20061;-25
2022/05/08 00:14:40;;;;;;;28.50;4.77;;;2.90;1.00;;;;;;5016485;28;20049;-25
2022/05/08 00:17:05;;;;;;;9.60;2.63;;;3.10;99.90;;;;;;5016845;28;20623;-26
2022/05/08 00:19:31;;;;;;;9.30;3.43;;;2.90;40.00;;;;;;5029946;28;20132;-26
2022/05/08 00:21:57;;;;;;;16.67;3.70;;;3.00;10.10;;;;;;5016437;28;20505;-26
2022/05/08 00:24:23;;;;;;;28.37;6.50;;;2.70;13.10;;;;;;5015517;28;20100;-25
2022/05/08 00:26:48;;;;;;;25.20;6.83;;;3.40;67.40;;;;;;5017860;28;20041;-27
2022/05/08 00:29:15;;;;;;;22.53;5.70;;;2.80;63.40;;;;;;5014714;28;21513;-25
2022/05/08 00:31:42;;;;;;;15.57;4.50;;;3.10;76.20;;;;;;5016972;28;20141;-26
2022/05/08 00:34:08;;;;;;;66.40;5.57;;;3.70;96.60;;;;;;5019142;28;20086;-26
2022/05/08 00:36:34;;;;;;;7.43;3.30;;;2.70;70.10;;;;;;5014593;28;20061;-26
2022/05/08 00:38:59;;;;;;;15.80;3.83;;;2.80;32.70;;;;;;5016601;28;20050;-26
2022/05/08 00:41:25;;;;;;;18.30;5.97;;;2.70;29.50;;;;;;5034035;28;20037;-26
2022/05/08 00:43:51;;;;;;;24.70;5.43;;;2.60;41.50;;;;;;5034805;28;20385;-26
2022/05/08 00:46:17;;;;;;;84.77;9.13;;;2.90;99.90;;;;;;5034728;28;20405;-26
2022/05/08 00:48:44;;;;;;;13.07;5.23;;;3.10;99.90;;;;;;5026278;28;20046;-26
2022/05/08 00:51:13;;;;;;;15.47;5.27;;;4.20;99.90;;;;;;5015876;28;20117;-26
2022/05/08 00:53:44;;;;;;;21.23;5.97;;;3.20;99.90;;;;;;5015272;28;20194;-26
2022/05/08 00:56:11;;;;;;;20.77;7.37;;;2.80;99.90;;;;;;5015471;28;20058;-25
2022/05/08 00:58:38;;;;;;;25.33;8.90;;;2.80;99.90;;;;;;5015451;28;20056;-26
2022/05/08 01:01:05;;;;;;;42.53;9.67;;;2.90;99.90;;;;;;5015550;28;20085;-26
2022/05/08 01:03:32;;;;;;;38.90;9.93;;;3.10;99.90;;;;;;5017199;28;20050;-26
2022/05/08 01:05:59;;;;;;;34.47;9.07;;;3.50;99.90;;;;;;5015236;28;20508;-26
2022/05/08 01:08:25;;;;;;;43.47;9.47;;;3.00;99.90;;;;;;5013566;28;20096;-26
2022/05/08 01:10:53;;;;;;;35.57;8.90;;;3.40;99.90;;;;;;5015626;28;20042;-27
2022/05/08 01:13:19;;;;;;;48.47;12.33;;;3.20;99.90;;;;;;5012747;28;20054;-26
2022/05/08 01:15:47;;;;;;;39.87;9.60;;;3.30;99.90;;;;;;5010445;28;20525;-26
2022/05/08 01:18:14;;;;;;;31.03;9.43;;;3.30;99.90;;;;;;5029417;28;20092;-26
2022/05/08 01:20:41;;;;;;;45.50;12.27;;;3.30;99.90;;;;;;5014593;28;20409;-26
2022/05/08 01:23:08;;;;;;;36.07;9.73;;;4.00;99.90;;;;;;5015916;28;20050;-26
2022/05/08 01:25:35;;;;;;;25.63;7.80;;;3.40;99.90;;;;;;5014708;28;20456;-26
2022/05/08 01:28:04;;;;;;;27.87;8.80;;;3.40;99.90;;;;;;5014090;28;20038;-26
2022/05/08 01:30:31;;;;;;;18.53;5.50;;;3.30;99.90;;;;;;5018566;28;20091;-26
2022/05/08 01:33:00;;;;;;;22.40;4.50;;;3.50;99.90;;;;;;5025711;28;20505;-26
2022/05/08 01:35:26;;;;;;;66.57;5.27;;;3.30;99.90;;;;;;5022606;28;20042;-26
2022/05/08 01:37:51;;;;;;;42.83;4.37;;;3.30;82.60;;;;;;5012724;28;20042;-26
2022/05/08 01:40:17;;;;;;;400.53;17.60;;;2.90;1.80;;;;;;5013002;28;20053;-26
2022/05/08 01:42:46;;;;;;;25.50;6.30;;;3.00;1.00;;;;;;5028568;28;20045;-26
2022/05/08 01:45:12;;;;;;;19.23;5.23;;;2.50;1.00;;;;;;5035084;28;20062;-26
2022/05/08 01:50:25;;;;;;;18.63;5.10;;;2.20;1.00;;;;;;5034362;28;20103;-26
2022/05/08 01:52:51;;;;;;;32.10;8.37;;;2.70;35.40;;;;;;5021327;28;20045;-27
2022/05/08 01:55:17;;;;;;;18.87;5.53;;;2.20;88.30;;;;;;5011191;28;20061;-29
2022/05/08 01:57:43;;;;;;;32.93;8.50;;;2.60;99.90;;;;;;5014107;28;20046;-27
2022/05/08 02:00:09;;;;;;;12.37;5.70;;;2.30;99.90;;;;;;5013879;28;20129;-27
2022/05/08 02:02:35;;;;;;;17.37;7.00;;;2.10;99.90;;;;;;5014885;28;20080;-27
2022/05/08 02:05:02;;;;;;;20.50;6.90;;;2.40;99.90;;;;;;4996544;28;20069;-27
2022/05/08 02:07:28;;;;;;;20.43;8.60;;;2.10;99.90;;;;;;5015995;28;20057;-27
2022/05/08 02:09:55;;;;;;;16.07;5.43;;;2.10;99.90;;;;;;5026165;28;20120;-27
2022/05/08 02:12:21;;;;;;;26.30;6.93;;;2.30;99.90;;;;;;5034029;28;20041;-28
2022/05/08 02:14:46;;;;;;;27.23;6.87;;;2.20;99.90;;;;;;4997729;28;20135;-28
2022/05/08 02:17:12;;;;;;;56.00;5.00;;;2.30;99.90;;;;;;5013237;28;20045;-27
2022/05/08 02:19:38;;;;;;;9.70;2.80;;;3.40;99.90;;;;;;5014700;28;20046;-27
2022/05/08 02:22:04;;;;;;;9.40;4.27;;;2.10;99.90;;;;;;5014197;28;20088;-27
2022/05/08 02:24:30;;;;;;;16.07;4.70;;;1.90;99.90;;;;;;5019922;28;20045;-27
2022/05/08 02:26:56;;;;;;;13.67;4.57;;;2.00;99.90;;;;;;5014369;28;20049;-27
2022/05/08 02:29:22;;;;;;;14.17;4.80;;;1.80;99.90;;;;;;4997167;28;20050;-27
2022/05/08 02:31:47;;;;;;;24.13;6.00;;;2.30;99.90;;;;;;5013868;28;20058;-27
2022/05/08 02:34:13;;;;;;;22.40;7.80;;;1.90;99.90;;;;;;5013701;28;20489;-27
2022/05/08 02:36:39;;;;;;;18.00;6.33;;;1.90;99.90;;;;;;5014565;28;20056;-27
2022/05/08 02:39:05;;;;;;;20.97;7.00;;;2.20;99.90;;;;;;5018840;28;20436;-27
2022/05/08 02:41:31;;;;;;;23.10;9.17;;;1.80;99.90;;;;;;5019160;28;20045;-27
2022/05/08 02:43:56;;;;;;;21.10;6.93;;;2.00;99.90;;;;;;5017202;28;20042;-27
2022/05/08 02:46:22;;;;;;;24.13;7.83;;;2.10;99.90;;;;;;5014032;28;20053;-28
2022/05/08 02:48:48;;;;;;;21.67;7.10;;;1.90;99.90;;;;;;5012716;28;20496;-27
2022/05/08 02:51:14;;;;;;;24.30;7.50;;;2.10;99.90;;;;;;5013877;28;20132;-27
2022/05/08 02:53:39;;;;;;;19.07;6.90;;;1.90;99.90;;;;;;5011864;28;20558;-27
2022/05/08 02:58:49;;;;;;;15.67;6.43;;;2.10;99.90;;;;;;5012580;28;20497;-27
2022/05/08 03:01:15;;;;;;;14.40;5.90;;;2.70;99.90;;;;;;5013752;28;20054;-27
2022/05/08 03:03:41;;;;;;;20.37;5.57;;;1.80;99.90;;;;;;5025916;28;20041;-27
2022/05/08 03:06:07;;;;;;;16.63;5.43;;;1.90;99.90;;;;;;5027283;28;20042;-27
2022/05/08 03:08:33;;;;;;;17.57;4.67;;;1.90;99.90;;;;;;5012485;28;20501;-27
2022/05/08 03:13:43;;;;;;;8.63;2.63;;;1.80;99.90;;;;;;5012917;28;20140;-27
2022/05/08 03:16:11;;;;;;;8.13;3.13;;;2.00;99.90;;;;;;5012968;28;20101;-27
2022/05/08 03:18:40;;;;;;;18.43;6.53;;;3.50;99.90;;;;;;5013765;28;20046;-27
2022/05/08 03:21:08;;;;;;;22.50;6.83;;;1.70;99.90;;;;;;5013530;28;20046;-27
2022/05/08 03:23:35;;;;;;;15.63;4.57;;;1.80;99.90;;;;;;5013047;28;20141;-27
2022/05/08 03:26:01;;;;;;;9.90;4.30;;;1.80;99.90;;;;;;5011926;28;20053;-27
2022/05/08 03:28:27;;;;;;;17.87;5.10;;;1.80;99.90;;;;;;5012593;28;20056;-27
2022/05/08 03:30:53;;;;;;;14.80;5.43;;;2.10;99.90;;;;;;4995245;28;20125;-28
2022/05/08 03:33:18;;;;;;;14.37;4.00;;;2.00;99.90;;;;;;5012860;28;20536;-28
2022/05/08 03:35:44;;;;;;;4.67;1.80;;;1.90;99.90;;;;;;4999174;28;20113;-27
2022/05/08 03:38:10;;;;;;;7.43;1.77;;;1.80;99.90;;;;;;5004288;28;20069;-27
2022/05/08 03:40:36;;;;;;;3.73;1.50;;;1.90;99.90;;;;;;5031204;28;20813;-27
2022/05/08 03:43:03;;;;;;;3.20;1.20;;;1.80;99.90;;;;;;5013303;28;20060;-27
2022/05/08 03:45:29;;;;;;;4.30;1.47;;;1.70;99.90;;;;;;5011557;28;20493;-27
2022/05/08 03:47:55;;;;;;;10.13;3.80;;;1.50;99.90;;;;;;5013294;28;20054;-27
2022/05/08 03:50:22;;;;;;;8.70;3.00;;;2.00;99.90;;;;;;5012571;28;20057;-27
2022/05/08 03:52:48;;;;;;;11.73;3.83;;;1.80;99.90;;;;;;5012500;28;20049;-27
2022/05/08 03:55:15;;;;;;;14.57;4.27;;;1.70;99.90;;;;;;5013202;28;20101;-27
2022/05/08 03:57:42;;;;;;;11.43;3.93;;;1.50;99.90;;;;;;5013797;28;20054;-27
2022/05/08 04:00:08;;;;;;;10.77;4.23;;;1.60;99.90;;;;;;5014968;28;20042;-27
2022/05/08 04:02:34;;;;;;;14.30;7.30;;;1.50;99.90;;;;;;5016189;28;20061;-27
2022/05/08 04:05:06;;;;;;;16.33;6.07;;;1.60;99.90;;;;;;5016191;28;20046;-27
2022/05/08 04:07:32;;;;;;;17.60;7.30;;;1.50;99.90;;;;;;5015719;28;20442;-27
2022/05/08 04:09:58;;;;;;;25.97;7.37;;;1.80;99.90;;;;;;5016979;28;20052;-27
2022/05/08 04:12:25;;;;;;;22.00;7.30;;;1.90;99.90;;;;;;5014789;28;20367;-28
2022/05/08 04:14:50;;;;;;;24.30;8.23;;;2.00;1.00;;;;;;5016156;28;20073;-27
2022/05/08 04:17:16;;;;;;;22.30;7.70;;;2.10;1.00;;;;;;5015874;28;20510;-27
2022/05/08 04:19:42;;;;;;;22.87;7.70;;;2.30;1.00;;;;;;5016262;28;20038;-27
2022/05/08 04:24:53;;;;;;;21.80;7.70;;;2.50;1.00;;;;;;5015819;28;20057;-27
2022/05/08 04:27:19;;;;;;;19.30;7.80;;;2.60;1.00;;;;;;5016302;28;20100;-28
2022/05/08 04:29:45;;;;;;;18.00;7.00;;;2.80;1.00;;;;;;5012222;28;20050;-27
2022/05/08 04:32:11;;;;;;;21.50;7.87;;;2.50;1.00;;;;;;5015681;28;20104;-28
2022/05/08 04:34:37;;;;;;;24.30;8.40;;;2.80;1.00;;;;;;5018396;28;20049;-28
2022/05/08 04:37:03;;;;;;;18.97;7.50;;;2.90;1.00;;;;;;5014747;28;20448;-28
2022/05/08 04:39:29;;;;;;;21.63;7.70;;;3.10;1.00;;;;;;5015153;28;20057;-28
2022/05/08 04:41:55;;;;;;;22.77;8.87;;;3.00;4.90;;;;;;5016424;28;20076;-27
2022/05/08 04:44:21;;;;;;;22.43;9.90;;;3.70;42.50;;;;;;5014945;28;20103;-28
2022/05/08 04:46:47;;;;;;;30.58;9.40;;;3.70;64.60;;;;;;5016027;28;20188;-28
2022/05/08 04:49:13;;;;;;;19.95;8.38;;;3.70;90.90;;;;;;5036481;28;20499;-28
2022/05/08 04:51:39;;;;;;;28.05;8.05;;;3.90;98.80;;;;;;5032075;28;20087;-27
2022/05/08 04:54:05;;;;;;;20.45;8.38;;;4.30;99.90;;;;;;5013719;28;20077;-27
2022/05/08 04:56:31;;;;;;;18.15;7.63;;;4.10;99.90;;;;;;5014805;28;20057;-27
2022/05/08 04:58:57;;;;;;;18.98;6.50;;;4.30;99.90;;;;;;5015444;28;20050;-27
2022/05/08 05:01:24;;;;;;;17.05;6.80;;;4.40;99.90;;;;;;5014151;28;20038;-28
2022/05/08 05:03:50;;;;;;;17.48;7.25;;;4.80;99.90;;;;;;5015670;28;20058;-27
2022/05/08 05:06:17;;;;;;;18.23;6.32;;;4.80;99.90;;;;;;4998825;28;20417;-27
2022/05/08 05:08:43;;;;;;;17.05;6.40;;;4.90;99.90;;;;;;5014991;28;20050;-28
2022/05/08 05:11:09;;;;;;;19.35;7.15;;;5.20;99.90;;;;;;5016005;28;20100;-28
2022/05/08 05:13:38;;;;;;;14.05;5.40;;;5.50;99.90;;;;;;5014678;28;20058;-28
2022/05/08 05:16:06;;;;;;;19.63;5.88;;;5.50;99.90;;;;;;5012847;28;20045;-28
2022/05/08 05:18:32;;;;;;;15.02;5.60;;;6.10;99.90;;;;;;5017447;28;20056;-28
2022/05/08 05:20:58;;;;;;;18.75;6.28;;;6.00;99.90;;;;;;5015767;28;20056;-28
2022/05/08 05:23:24;;;;;;;14.85;4.80;;;6.20;99.90;;;;;;5013229;28;20046;-28
2022/05/08 05:25:50;;;;;;;13.98;4.68;;;6.60;99.90;;;;;;5014008;28;20053;-27
2022/05/08 05:28:17;;;;;;;18.05;4.68;;;6.60;99.90;;;;;;5014136;28;20103;-28
2022/05/08 05:30:43;;;;;;;13.73;4.28;;;6.80;99.90;;;;;;4997500;28;20042;-28
2022/05/08 05:33:15;;;;;;;13.65;4.28;;;7.00;99.90;;;;;;5016453;28;20049;-28
2022/05/08 05:35:41;;;;;;;15.60;4.18;;;7.30;99.90;;;;;;5015822;28;20085;-28
2022/05/08 05:38:08;;;;;;;10.98;4.03;;;7.30;99.90;;;;;;5014831;28;20053;-28
2022/05/08 05:40:34;;;;;;;15.65;4.80;;;7.50;99.90;;;;;;5015383;28;20037;-28
2022/05/08 05:42:59;;;;;;;15.73;4.03;;;7.60;99.90;;;;;;5014882;28;20050;-28
2022/05/08 05:45:26;;;;;;;14.25;3.35;;;7.60;99.90;;;;;;5013959;28;20048;-28
2022/05/08 05:47:54;;;;;;;11.30;3.20;;;7.80;99.90;;;;;;5014212;28;20050;-27
2022/05/08 05:50:24;;;;;;;15.23;3.38;;;8.00;99.90;;;;;;5013646;28;20056;-29
2022/05/08 05:52:51;;;;;;;11.60;2.92;;;8.20;8.00;;;;;;5014706;28;20050;-27
2022/05/08 05:55:17;;;;;;;16.05;3.50;;;8.30;1.00;;;;;;5014686;28;20053;-28
2022/05/08 05:57:43;;;;;;;13.50;3.38;;;8.50;1.00;;;;;;5013049;28;20067;-28
2022/05/08 06:00:12;;;;;;;10.95;2.53;;;8.70;1.00;;;;;;5014099;28;20046;-28
2022/05/08 06:02:40;;;;;;;8.73;2.28;;;8.70;99.90;;;;;;5014459;28;20049;-28
2022/05/08 06:05:06;;;;;;;13.65;3.15;;;8.90;99.90;;;;;;5013906;28;20405;-28
2022/05/08 06:07:37;;;;;;;11.82;2.55;;;9.00;99.90;;;;;;5012785;28;20066;-28
2022/05/08 06:10:08;;;;;;;12.95;2.45;;;9.30;1.00;;;;;;5014430;28;20045;-28
2022/05/08 06:12:33;;;;;;;9.80;2.47;;;9.60;1.00;;;;;;4997468;28;20081;-27
2022/05/08 06:15:00;;;;;;;10.25;2.22;;;9.90;99.90;;;;;;5014382;28;20135;-28
2022/05/08 06:17:26;;;;;;;7.22;1.48;;;10.10;99.90;;;;;;5012975;28;20042;-27
2022/05/08 06:19:52;;;;;;;13.05;1.90;;;10.10;8.10;;;;;;5013634;28;20184;-28
2022/05/08 06:22:18;;;;;;;11.05;2.08;;;10.20;1.00;;;;;;5017924;28;20120;-28
2022/05/08 06:24:43;;;;;;;8.40;2.20;;;10.30;1.00;;;;;;5033978;28;20400;-28
2022/05/08 06:27:09;;;;;;;10.00;2.00;;;10.30;1.00;;;;;;5014036;28;20054;-27
2022/05/08 06:29:35;;;;;;;5.35;1.33;;;10.30;99.90;;;;;;4995957;28;20108;-28
2022/05/08 06:32:01;;;;;;;10.95;2.33;;;10.40;99.90;;;;;;5019252;28;20064;-28
2022/05/08 06:34:27;;;;;;;11.30;1.83;;;10.50;99.90;;;;;;5018550;28;20057;-28
2022/05/08 06:36:54;;;;;;;8.40;1.85;;;10.70;99.90;;;;;;5012473;28;20100;-27
2022/05/08 06:39:19;;;;;;;9.98;2.95;;;10.90;99.90;;;;;;5012477;28;20096;-28
2022/05/08 06:41:45;;;;;;;11.05;2.00;;;10.80;99.90;;;;;;5013893;28;20504;-28
2022/05/08 06:44:13;;;;;;;10.00;1.65;;;11.10;99.90;;;;;;5014532;28;20052;-28
2022/05/08 06:46:39;;;;;;;11.50;1.85;;;11.40;99.90;;;;;;5017699;28;20515;-28
2022/05/08 06:49:05;;;;;;;9.85;1.23;;;11.70;61.50;;;;;;5023020;28;20038;-28
2022/05/08 06:51:32;;;;;;;10.13;1.52;;;11.90;1.00;;;;;;5013717;28;20053;-29
2022/05/08 06:53:58;;;;;;;9.55;1.92;;;11.90;1.00;;;;;;5014088;28;20065;-28
2022/05/08 06:56:26;;;;;;;7.10;2.03;;;11.80;1.00;;;;;;5013824;28;20046;-30
2022/05/08 07:01:40;;;;;;;9.73;2.00;;;12.10;1.00;;;;;;5013749;28;20085;-28
2022/05/08 07:04:07;;;;;;;11.73;2.72;;;12.20;1.00;;;;;;5012963;28;20092;-28
2022/05/08 07:06:37;;;;;;;7.65;1.50;;;12.30;1.00;;;;;;5013402;28;20054;-28
2022/05/08 07:09:04;;;;;;;8.45;1.50;;;12.50;1.00;;;;;;5013192;28;20128;-28
2022/05/08 07:11:33;;;;;;;13.75;2.60;;;12.50;99.90;;;;;;5013039;28;20049;-27
2022/05/08 07:13:59;;;;;;;8.20;2.03;;;12.60;99.90;;;;;;5021405;28;20088;-27
2022/05/08 07:16:25;;;;;;;6.32;1.40;;;12.80;99.90;;;;;;5019436;28;20390;-27
2022/05/08 07:18:51;;;;;;;9.70;2.38;;;12.90;99.90;;;;;;5025825;28;20385;-27
2022/05/08 07:21:19;;;;;;;10.02;1.58;;;13.00;99.90;;;;;;5032892;28;20049;-27
2022/05/08 07:23:47;;;;;;;8.50;1.75;;;12.90;99.90;;;;;;5033225;28;20551;-27
2022/05/08 07:26:14;;;;;;;9.63;1.90;;;12.80;99.90;;;;;;5032087;28;20046;-27
2022/05/08 07:28:41;;;;;;;12.48;1.88;;;12.50;99.90;;;;;;5032227;28;20049;-27
2022/05/08 07:31:06;;;;;;;12.80;1.80;;;12.50;99.90;;;;;;5031637;28;20053;-27
2022/05/08 07:33:35;;;;;;;12.80;2.15;;;12.50;99.90;;;;;;5032436;28;20045;-27
2022/05/08 07:36:14;;;;;;;14.38;2.00;;;12.50;99.90;;;;;;5036191;28;20037;-27
2022/05/08 07:38:45;;;;;;;13.50;3.10;;;12.60;99.90;;;;;;5036023;28;20091;-27
2022/05/08 07:41:14;;;;;;;8.48;1.60;;;12.60;99.90;;;;;;5037152;28;20396;-27
2022/05/08 07:43:42;;;;;;;11.90;2.35;;;12.70;99.90;;;;;;5033060;28;20053;-26
2022/05/08 07:46:08;;;;;;;6.60;1.83;;;12.80;99.90;;;;;;5036831;28;20057;-27
2022/05/08 07:48:34;;;;;;;6.13;1.27;;;12.70;99.90;;;;;;5022271;28;20124;-27
2022/05/08 07:51:00;;;;;;;7.68;1.73;;;12.90;99.90;;;;;;5037577;28;20440;-27
2022/05/08 07:53:27;;;;;;;10.63;1.80;;;13.00;99.90;;;;;;5026604;28;20050;-27
2022/05/08 07:55:53;;;;;;;8.20;1.90;;;12.80;99.90;;;;;;5016602;28;20493;-27
2022/05/08 07:58:21;;;;;;;10.27;1.77;;;12.60;99.90;;;;;;5018819;28;20128;-27
2022/05/08 08:00:46;;;;;;;11.60;2.35;;;12.60;99.90;;;;;;4999599;28;20081;-26
2022/05/08 08:03:12;;;;;;;11.25;2.22;;;12.80;99.90;;;;;;5016779;28;20143;-27
2022/05/08 08:05:39;;;;;;;5.95;1.65;;;13.10;99.90;;;;;;5015583;28;20099;-28
2022/05/08 08:08:05;;;;;;;9.23;1.63;;;13.30;99.90;;;;;;5015996;28;20056;-27
2022/05/08 08:10:31;;;;;;;12.65;1.73;;;13.20;99.90;;;;;;5018380;28;20045;-26
2022/05/08 08:12:57;;;;;;;11.48;2.33;;;13.00;99.90;;;;;;5032508;28;20045;-27
2022/05/08 08:15:23;;;;;;;8.25;1.63;;;13.10;99.90;;;;;;5035979;28;20061;-26
2022/05/08 08:17:49;;;;;;;13.88;2.80;;;13.30;99.90;;;;;;5023790;28;20042;-27
2022/05/08 08:20:14;;;;;;;6.97;2.05;;;13.40;99.90;;;;;;5032355;28;20044;-27
2022/05/08 08:22:40;;;;;;;7.00;1.67;;;13.40;99.90;;;;;;5034158;28;20042;-27
2022/05/08 08:25:06;;;;;;;9.77;1.85;;;13.50;99.90;;;;;;5034968;28;20045;-27
2022/05/08 08:27:32;;;;;;;9.10;2.15;;;13.70;99.90;;;;;;5027134;28;20061;-27
2022/05/08 08:29:59;;;;;;;9.65;1.70;;;13.90;99.90;;;;;;5024809;28;20049;-28
2022/05/08 08:32:26;;;;;;;7.10;1.42;;;13.90;99.90;;;;;;5028793;28;20089;-27
2022/05/08 08:34:53;;;;;;;9.93;1.45;;;14.00;99.90;;;;;;5028587;28;20049;-27
2022/05/08 08:37:18;;;;;;;8.27;1.92;;;14.00;99.90;;;;;;5023219;28;20074;-27
2022/05/08 08:39:44;;;;;;;15.07;2.22;;;13.90;57.00;;;;;;5018548;28;20088;-28
2022/05/08 08:42:26;;;;;;;16.52;2.20;;;13.90;99.90;;;;;;5016794;28;20068;-27
2022/05/08 08:47:53;;;;;;;4.70;1.35;;;14.20;88.70;;;;;;5015933;28;20061;-27
2022/05/08 08:50:22;;;;;;;10.10;1.35;;;14.40;9.00;;;;;;5020488;28;20116;-27
2022/05/08 08:52:48;;;;;;;12.30;2.20;;;14.20;67.10;;;;;;5028112;28;20511;-27
2022/05/08 08:55:17;;;;;;;9.75;1.75;;;14.40;99.90;;;;;;5027555;28;20041;-27
2022/05/08 08:57:46;;;;;;;9.80;2.65;;;14.80;1.00;;;;;;5034423;28;20052;-27
2022/05/08 09:00:13;;;;;;;12.00;6.28;;;14.50;1.00;;;;;;5030582;28;20034;-27
2022/05/08 09:02:39;;;;;;;15.23;2.38;;;14.60;1.00;;;;;;5026501;28;20100;-27
2022/05/08 09:05:09;;;;;;;6.20;1.63;;;15.20;1.00;;;;;;5014908;28;20124;-28
2022/05/08 09:07:38;;;;;;;9.07;1.77;;;15.30;1.00;;;;;;5025594;28;20050;-27
2022/05/08 09:10:35;;;;;;;15.48;2.00;;;14.60;1.00;;;;;;5016043;28;20489;-27
2022/05/08 09:13:07;;;;;;;8.48;2.00;;;14.10;1.00;;;;;;5029778;28;20045;-27
2022/05/08 09:15:36;;;;;;;15.35;2.55;;;14.50;1.00;;;;;;5035585;28;20054;-27
2022/05/08 09:18:07;;;;;;;13.10;2.00;;;15.20;1.00;;;;;;5033893;28;20058;-27
2022/05/08 09:20:39;;;;;;;7.97;1.83;;;15.50;1.00;;;;;;5034792;28;20037;-27
2022/05/08 09:23:14;;;;;;;7.95;2.50;;;15.90;1.00;;;;;;5023675;28;20054;-27
2022/05/08 09:26:08;;;;;;;12.18;2.00;;;16.20;1.00;;;;;;5028484;28;20382;-27
2022/05/08 09:28:44;;;;;;;7.32;1.80;;;15.80;1.00;;;;;;5024827;28;20088;-27
2022/05/08 09:31:16;;;;;;;14.50;2.28;;;15.70;1.00;;;;;;5027930;28;20033;-27
2022/05/08 09:33:47;;;;;;;12.95;2.20;;;16.10;1.00;;;;;;5033331;28;20045;-27
2022/05/08 09:36:20;;;;;;;9.80;1.63;;;16.80;99.90;;;;;;5018533;28;20096;-27
2022/05/08 09:38:52;;;;;;;14.63;2.35;;;17.60;99.90;;;;;;5015811;28;20049;-27
2022/05/08 09:41:23;;;;;;;11.23;2.10;;;18.00;99.90;;;;;;5027325;28;20545;-27
2022/05/08 09:43:56;;;;;;;8.13;1.58;;;18.30;99.90;;;;;;5000081;28;20089;-27
2022/05/08 09:46:23;;;;;;;8.65;2.38;;;18.20;99.90;;;;;;5028684;28;20040;-27
2022/05/08 09:48:49;;;;;;;7.72;2.22;;;18.30;99.90;;;;;;5034326;28;20108;-27
2022/05/08 09:51:16;;;;;;;9.95;2.00;;;18.10;99.90;;;;;;5034317;28;20045;-27
2022/05/08 09:53:44;;;;;;;9.35;1.80;;;17.80;99.90;;;;;;5034241;28;20107;-27
2022/05/08 09:56:12;;;;;;;11.52;2.17;;;18.00;99.90;;;;;;5039130;28;20055;-29
2022/05/08 09:58:40;;;;;;;12.38;2.15;;;18.10;99.90;;;;;;5029089;28;20049;-27
2022/05/08 10:01:09;;;;;;;9.68;2.30;;;18.20;99.90;;;;;;5017550;28;20038;-27
2022/05/08 10:03:35;;;;;;;11.70;2.15;;;18.00;99.90;;;;;;5013368;28;20508;-27
2022/05/08 10:06:02;;;;;;;9.50;2.05;;;17.90;99.90;;;;;;5013797;28;20057;-27
2022/05/08 10:08:36;;;;;;;9.57;1.77;;;17.60;99.90;;;;;;5016043;28;20467;-27
2022/05/08 10:13:53;;;;;;;18.67;3.20;;;16.50;99.90;;;;;;5017209;28;20472;-27
2022/05/08 10:16:48;;;;;;;12.63;1.92;;;16.30;99.90;;;;;;5025449;28;20053;-27
2022/05/08 10:19:21;;;;;;;9.95;2.15;;;17.00;99.90;;;;;;5016184;28;20053;-27
2022/05/08 10:24:34;;;;;;;8.30;1.98;;;17.80;99.90;;;;;;5016966;28;20111;-27
2022/05/08 10:27:17;;;;;;;13.18;3.17;;;18.10;99.90;;;;;;5014863;28;20103;-27
2022/05/08 10:29:54;;;;;;;7.95;2.17;;;18.20;99.90;;;;;;5011112;28;20780;-27
2022/05/08 10:32:32;;;;;;;12.95;2.22;;;18.00;99.90;;;;;;5013708;28;20079;-27
2022/05/08 10:35:18;;;;;;;10.48;2.25;;;18.10;99.90;;;;;;5017341;28;20057;-27
2022/05/08 10:37:51;;;;;;;10.23;2.28;;;18.20;99.90;;;;;;5010645;28;20409;-27
2022/05/08 10:40:22;;;;;;;11.38;3.88;;;18.20;99.90;;;;;;5018365;28;20041;-27
2022/05/08 10:42:54;;;;;;;6.97;2.08;;;18.60;99.90;;;;;;5018311;28;20056;-27
2022/05/08 10:45:32;;;;;;;9.05;2.08;;;18.80;99.90;;;;;;5019071;28;20085;-26
2022/05/08 10:48:08;;;;;;;9.57;2.47;;;18.90;99.90;;;;;;5012377;28;20049;-29
2022/05/08 10:50:36;;;;;;;11.55;2.78;;;18.50;99.90;;;;;;5017871;28;20080;-27
2022/05/08 10:53:02;;;;;;;12.10;1.98;;;18.40;99.90;;;;;;5017121;28;20508;-27
2022/05/08 10:55:29;;;;;;;7.88;1.90;;;18.30;99.90;;;;;;5015944;28;20378;-27
2022/05/08 10:57:55;;;;;;;7.82;1.55;;;18.70;99.90;;;;;;5015343;28;20042;-27
2022/05/08 11:00:39;;;;;;;7.18;2.08;;;18.70;99.90;;;;;;5014347;28;20038;-27
2022/05/08 11:03:05;;;;;;;11.02;2.03;;;18.90;99.90;;;;;;5013128;28;21650;-29
2022/05/08 11:05:32;;;;;;;14.23;2.63;;;18.80;99.90;;;;;;5012131;28;20042;-28
2022/05/08 11:07:58;;;;;;;9.05;2.40;;;18.80;99.90;;;;;;5015618;28;20188;-29
2022/05/08 11:10:25;;;;;;;7.13;2.22;;;18.80;99.90;;;;;;5016561;28;20038;-27
2022/05/08 11:13:05;;;;;;;11.70;2.20;;;18.70;99.90;;;;;;5016462;28;20053;-27
2022/05/08 11:15:32;;;;;;;5.75;1.67;;;18.70;99.90;;;;;;5023515;28;20088;-27
2022/05/08 11:18:17;;;;;;;9.23;2.33;;;18.90;99.90;;;;;;5021797;28;20169;-28
2022/05/08 11:20:53;;;;;;;8.73;1.75;;;18.80;99.90;;;;;;5017488;28;20410;-28
2022/05/08 11:23:21;;;;;;;7.95;2.20;;;18.70;99.90;;;;;;5023235;28;20599;-28
2022/05/08 11:25:49;;;;;;;12.55;2.40;;;18.50;99.90;;;;;;5026360;28;20053;-27
2022/05/08 11:28:17;;;;;;;7.78;1.83;;;18.60;99.90;;;;;;5031684;28;20095;-27
2022/05/08 11:30:46;;;;;;;8.40;2.35;;;18.60;99.90;;;;;;5019679;28;20495;-28
2022/05/08 11:36:06;;;;;;;7.90;2.30;;;18.60;99.90;;;;;;5019232;28;20070;-27
2022/05/08 11:38:46;;;;;;;14.13;2.13;;;19.00;99.90;;;;;;5024198;28;20081;-27
2022/05/08 11:41:17;;;;;;;11.68;2.50;;;18.90;99.90;;;;;;5016108;28;20128;-27
2022/05/08 11:43:50;;;;;;;14.93;2.42;;;18.90;99.90;;;;;;5018353;28;20129;-27
2022/05/08 11:46:38;;;;;;;11.95;2.30;;;18.80;99.90;;;;;;5023660;28;20072;-27
2022/05/08 11:49:13;;;;;;;9.93;2.03;;;18.70;99.90;;;;;;5020888;28;20045;-27
2022/05/08 11:51:41;;;;;;;17.38;2.67;;;19.10;99.90;;;;;;5020505;28;20054;-28
2022/05/08 11:54:38;;;;;;;15.18;3.05;;;19.30;99.90;;;;;;5016429;28;20046;-27
2022/05/08 11:57:14;;;;;;;9.68;2.05;;;19.50;99.90;;;;;;5024199;28;20065;-27
2022/05/08 11:59:40;;;;;;;10.80;2.15;;;19.80;99.90;;;;;;5024579;28;20122;-27
2022/05/08 12:02:09;;;;;;;6.22;2.22;;;19.70;99.90;;;;;;5014902;28;20041;-29
2022/05/08 12:04:37;;;;;;;8.48;2.55;;;19.80;99.90;;;;;;5016743;28;20065;-27
2022/05/08 12:07:10;;;;;;;10.32;2.50;;;19.50;99.90;;;;;;5013690;28;20042;-27
2022/05/08 12:09:37;;;;;;;11.95;2.45;;;19.70;99.90;;;;;;5020203;28;20434;-28
2022/05/08 12:12:28;;;;;;;13.70;2.85;;;19.70;99.90;;;;;;5018160;28;20046;-28
2022/05/08 12:15:02;;;;;;;13.88;2.65;;;19.70;99.90;;;;;;5019859;28;20058;-29
2022/05/08 12:17:28;;;;;;;14.63;3.17;;;19.50;99.90;;;;;;5029280;28;20061;-27
2022/05/08 12:19:56;;;;;;;9.63;2.35;;;19.40;99.90;;;;;;5032857;28;20444;-28
2022/05/08 12:22:26;;;;;;;13.07;2.70;;;19.40;99.90;;;;;;5035115;28;20111;-28
2022/05/08 12:24:53;;;;;;;9.40;2.28;;;19.10;99.90;;;;;;5024201;28;20128;-27
2022/05/08 12:27:19;;;;;;;11.63;2.72;;;19.20;99.90;;;;;;5036191;28;20124;-27
2022/05/08 12:29:46;;;;;;;10.95;2.08;;;19.00;99.90;;;;;;5031196;28;20462;-27
2022/05/08 12:32:16;;;;;;;14.82;2.50;;;18.90;99.90;;;;;;5033531;28;20056;-27
2022/05/08 12:34:43;;;;;;;8.88;2.15;;;19.00;99.90;;;;;;5021960;28;20041;-28
2022/05/08 12:37:10;;;;;;;12.32;2.47;;;19.10;99.90;;;;;;5026484;28;20592;-27
2022/05/08 12:39:36;;;;;;;9.75;2.58;;;19.00;99.90;;;;;;4999031;28;20560;-27
2022/05/08 12:42:02;;;;;;;9.75;1.77;;;18.90;99.90;;;;;;5033799;28;20033;-27
2022/05/08 12:44:28;;;;;;;10.15;1.88;;;18.60;99.90;;;;;;5018477;28;20054;-28
2022/05/08 12:46:54;;;;;;;11.07;2.17;;;18.30;99.90;;;;;;5016579;28;20172;-27
2022/05/08 12:49:19;;;;;;;8.77;2.00;;;18.30;99.90;;;;;;5017015;28;20084;-27
2022/05/08 12:51:46;;;;;;;8.25;1.73;;;18.40;99.90;;;;;;5026734;28;20034;-28
2022/05/08 12:54:11;;;;;;;8.73;2.47;;;18.50;99.90;;;;;;5017859;28;20042;-27
2022/05/08 12:56:37;;;;;;;9.07;1.80;;;18.30;99.90;;;;;;5021157;28;20104;-27
2022/05/08 13:01:51;;;;;;;8.68;1.98;;;18.30;99.90;;;;;;5022258;28;20049;-27
2022/05/08 13:04:16;;;;;;;11.43;2.30;;;18.30;99.90;;;;;;5020210;28;20049;-27
2022/05/08 13:06:42;;;;;;;5.10;1.80;;;18.60;99.90;;;;;;5020216;28;20404;-28
2022/05/08 13:09:08;;;;;;;8.85;2.00;;;18.50;99.90;;;;;;5020107;28;20057;-27
2022/05/08 13:11:35;;;;;;;9.98;1.90;;;18.50;99.90;;;;;;5020693;28;20393;-27
2022/05/08 13:14:02;;;;;;;9.43;1.90;;;18.70;99.90;;;;;;5032413;28;20049;-27
2022/05/08 13:16:28;;;;;;;9.90;2.17;;;18.50;99.90;;;;;;5032650;28;20057;-29
2022/05/08 13:18:54;;;;;;;11.52;1.98;;;18.20;99.90;;;;;;5009027;28;20516;-27